Terminal Aerodrome Forecast
Issued by NWS Atlanta, GA

Current Version | Previous Version | Text Only | Print | Product List | Glossary On
Versions: 1 2 3 4 5 6 7 8 9 10 11 12 13 14 15 16 17 18 19 20 21 22 23 24 25 26 27 28 29 30 31 32 33 34 35 36 37 38
000
FTAK31 PAJK 161139
TAFAHN
TAF
PAHN 161139Z 1612/1712 07012KT 5SM -RA BR FEW020 SCT050 OVC070
      WS020/17025KT
     FM161400 09008KT 4SM RA BR BKN015 OVC040
     FM161800 07007KT 6SM -RA BR OVC015
     FM162200 07007KT P6SM -RA SCT015 OVC025
     FM170200 33005KT P6SM BKN050
     AMD LTD TO CLD VIS AND WIND=

USA.gov is the U.S. government's official web portal to all federal, state and local government web resources and services.